createdAt,value
2022-11-15T00:02:21.973Z,101344.00
2022-11-15T00:08:42.595Z,101341.00
2022-11-15T00:15:03.633Z,101336.00
2022-11-15T00:21:24.230Z,101333.00
2022-11-15T00:27:46.571Z,101342.00
2022-11-15T00:34:07.656Z,101331.00
2022-11-15T00:40:28.917Z,101317.00
2022-11-15T00:46:49.429Z,101309.00
2022-11-15T00:53:10.404Z,101304.00
2022-11-15T00:59:31.183Z,101302.00
2022-11-15T01:05:52.064Z,101294.00
2022-11-15T01:12:12.857Z,101295.00
2022-11-15T01:18:33.987Z,101291.00
2022-11-15T01:24:54.651Z,101293.00
2022-11-15T01:31:21.001Z,101285.00
2022-11-15T01:37:41.961Z,101288.00
2022-11-15T01:44:41.205Z,101277.00
2022-11-15T01:51:07.743Z,101285.00
2022-11-15T01:57:28.392Z,101270.00
2022-11-15T02:03:57.968Z,101269.00
2022-11-15T02:10:22.155Z,101251.00
2022-11-15T02:17:09.178Z,101256.00
2022-11-15T02:23:42.737Z,101256.00
2022-11-15T02:30:22.895Z,101240.00
2022-11-15T02:36:56.008Z,101236.00
2022-11-15T02:43:51.183Z,101233.00
2022-11-15T02:50:14.911Z,101228.00
2022-11-15T02:56:35.729Z,101232.00
2022-11-15T03:03:31.083Z,101229.00
2022-11-15T03:10:08.980Z,101233.00
2022-11-15T03:16:29.813Z,101225.00
2022-11-15T03:22:51.849Z,101225.00
2022-11-15T03:29:21.418Z,101213.00
2022-11-15T03:35:45.791Z,101214.00
2022-11-15T03:42:25.230Z,101209.00
2022-11-15T03:48:51.777Z,101205.00
2022-11-15T03:55:15.140Z,101198.00
2022-11-15T04:01:35.996Z,101189.00
2022-11-15T04:07:56.753Z,101193.00
2022-11-15T04:14:18.057Z,101183.00
2022-11-15T04:20:57.661Z,101183.00
2022-11-15T04:27:18.392Z,101181.00
2022-11-15T04:33:38.857Z,101167.00
2022-11-15T04:39:59.539Z,101165.00
2022-11-15T04:46:20.143Z,101164.00
2022-11-15T04:52:51.486Z,101150.00
2022-11-15T04:59:12.224Z,101149.00
2022-11-15T05:05:33.257Z,101160.00
2022-11-15T05:11:54.091Z,101155.00
2022-11-15T05:18:18.262Z,101157.00
2022-11-15T05:24:41.926Z,101163.00
2022-11-15T05:31:07.314Z,101151.00
2022-11-15T05:37:28.011Z,101155.00
2022-11-15T05:43:50.736Z,101153.00
2022-11-15T05:50:18.286Z,101155.00
2022-11-15T05:56:39.715Z,101161.00
2022-11-15T06:03:00.752Z,101161.00
2022-11-15T06:09:21.658Z,101163.00
2022-11-15T06:15:42.484Z,101164.00
2022-11-15T06:22:03.588Z,101163.00
2022-11-15T06:28:24.695Z,101151.00
2022-11-15T06:34:45.210Z,101152.00
2022-11-15T06:41:07.669Z,101164.00
2022-11-15T06:47:28.481Z,101160.00
2022-11-15T06:53:49.384Z,101166.00
2022-11-15T07:00:11.337Z,101156.00
2022-11-15T07:06:32.227Z,101153.00
2022-11-15T07:12:53.832Z,101150.00
2022-11-15T07:19:14.625Z,101145.00
2022-11-15T07:25:35.780Z,101142.00
2022-11-15T07:31:56.576Z,101138.00
2022-11-15T07:38:20.775Z,101137.00
2022-11-15T07:44:41.754Z,101141.00
2022-11-15T07:51:03.488Z,101143.00
2022-11-15T07:57:24.249Z,101145.00
2022-11-15T08:03:45.026Z,101135.00
2022-11-15T08:10:08.592Z,101122.00
2022-11-15T08:16:30.171Z,101131.00
2022-11-15T08:22:51.282Z,101123.00
2022-11-15T08:29:11.866Z,101116.00
2022-11-15T08:35:32.509Z,101118.00
2022-11-15T08:41:54.126Z,101113.00
2022-11-15T08:48:15.214Z,101103.00
2022-11-15T08:54:37.434Z,101095.00
2022-11-15T09:00:58.442Z,101084.00
2022-11-15T09:07:19.652Z,101083.00
2022-11-15T09:13:41.017Z,101075.00
2022-11-15T09:20:01.814Z,101061.00
2022-11-15T09:26:23.483Z,101050.00
2022-11-15T09:32:44.208Z,101055.00
2022-11-15T09:39:05.018Z,101039.00
2022-11-15T09:45:34.527Z,101046.00
2022-11-15T09:51:56.179Z,101021.00
2022-11-15T09:58:25.504Z,101018.00
2022-11-15T10:04:29.155Z,101001.00
2022-11-15T10:10:40.744Z,100998.00
2022-11-15T10:17:12.817Z,100997.00
2022-11-15T10:23:20.185Z,100981.00
2022-11-15T10:29:27.009Z,100981.00
2022-11-15T10:35:32.206Z,100970.00
2022-11-15T10:41:41.019Z,100968.00
2022-11-15T10:47:43.438Z,100961.00
2022-11-15T10:53:47.547Z,100955.00
2022-11-15T10:59:53.489Z,100952.00
2022-11-15T11:06:15.913Z,100946.00
2022-11-15T11:12:29.739Z,100924.00
2022-11-15T11:18:42.316Z,100916.00
2022-11-15T11:25:03.763Z,100907.00
2022-11-15T11:31:28.239Z,100894.00
2022-11-15T11:38:01.403Z,100891.00
2022-11-15T11:44:09.410Z,100884.00
2022-11-15T11:50:16.979Z,100886.00
2022-11-15T11:56:33.980Z,100873.00
2022-11-15T12:02:43.382Z,100864.00
2022-11-15T12:09:13.839Z,100857.00
2022-11-15T12:15:28.058Z,100854.00
2022-11-15T12:22:14.529Z,100849.00
2022-11-15T12:28:27.200Z,100844.00
2022-11-15T12:34:30.418Z,100831.00
2022-11-15T12:40:57.627Z,100834.00
2022-11-15T12:47:01.996Z,100827.00
2022-11-15T12:53:26.682Z,100817.00
2022-11-15T13:00:25.385Z,100809.00
2022-11-15T13:06:44.246Z,100801.00
2022-11-15T13:12:47.091Z,100804.00
2022-11-15T13:18:55.966Z,100793.00
2022-11-15T13:24:58.430Z,100786.00
2022-11-15T13:31:22.085Z,100780.00
2022-11-15T13:37:24.335Z,100776.00
2022-11-15T13:43:35.566Z,100782.00
2022-11-15T13:49:39.625Z,100766.00
2022-11-15T13:55:44.958Z,100760.00
2022-11-15T14:01:47.637Z,100755.00
2022-11-15T14:08:03.149Z,100742.00
2022-11-15T14:14:14.663Z,100735.00
2022-11-15T14:20:26.612Z,100739.00
2022-11-15T14:26:35.138Z,100730.00
2022-11-15T14:32:51.553Z,100726.00
2022-11-15T14:38:55.941Z,100719.00
2022-11-15T14:44:58.254Z,100706.00
2022-11-15T14:51:00.600Z,100695.00
2022-11-15T14:57:02.802Z,100697.00
2022-11-15T15:03:06.239Z,100692.00
2022-11-15T15:09:08.390Z,100683.00
2022-11-15T15:15:16.355Z,100682.00
2022-11-15T15:21:24.597Z,100671.00
2022-11-15T15:27:26.719Z,100679.00
2022-11-15T15:33:29.074Z,100671.00
2022-11-15T15:39:31.401Z,100674.00
2022-11-15T15:45:34.045Z,100659.00
2022-11-15T15:51:36.168Z,100660.00
2022-11-15T15:57:38.462Z,100651.00
2022-11-15T16:03:40.711Z,100644.00
2022-11-15T16:10:01.738Z,100643.00
2022-11-15T16:16:04.832Z,100641.00
2022-11-15T16:22:07.875Z,100638.00
2022-11-15T16:28:23.557Z,100620.00
2022-11-15T16:34:30.011Z,100628.00
2022-11-15T16:40:36.508Z,100631.00
2022-11-15T16:46:41.399Z,100625.00
2022-11-15T16:52:43.645Z,100629.00
2022-11-15T16:58:45.893Z,100621.00
2022-11-15T17:04:48.987Z,100623.00
2022-11-15T17:10:51.559Z,100617.00
2022-11-15T17:16:56.463Z,100604.00
2022-11-15T17:22:58.810Z,100594.00
2022-11-15T17:29:01.943Z,100567.00
2022-11-15T17:35:11.937Z,100560.00
2022-11-15T17:41:16.797Z,100561.00
2022-11-15T17:47:19.093Z,100541.00
2022-11-15T17:53:21.748Z,100546.00
2022-11-15T17:59:24.101Z,100528.00
2022-11-15T18:05:26.138Z,100530.00
2022-11-15T18:11:33.494Z,100531.00
2022-11-15T18:17:36.960Z,100530.00
2022-11-15T18:23:39.813Z,100526.00
2022-11-15T18:29:42.361Z,100521.00
2022-11-15T18:35:44.609Z,100512.00
2022-11-15T18:41:47.164Z,100506.00
2022-11-15T18:47:49.302Z,100506.00
2022-11-15T18:53:56.556Z,100505.00
2022-11-15T18:59:58.717Z,100491.00
2022-11-15T19:06:12.804Z,100487.00
2022-11-15T19:12:15.392Z,100484.00
2022-11-15T19:18:17.775Z,100479.00
2022-11-15T19:24:20.012Z,100478.00
2022-11-15T19:30:22.685Z,100484.00
2022-11-15T19:36:28.949Z,100479.00
2022-11-15T19:42:31.368Z,100469.00
2022-11-15T19:48:35.160Z,100465.00
2022-11-15T19:54:37.388Z,100464.00
2022-11-15T20:00:39.563Z,100460.00
2022-11-15T20:06:43.232Z,100462.00
2022-11-15T20:12:45.469Z,100447.00
2022-11-15T20:18:50.265Z,100439.00
2022-11-15T20:24:52.534Z,100433.00
2022-11-15T20:30:57.535Z,100425.00
2022-11-15T20:36:59.746Z,100399.00
2022-11-15T20:43:02.007Z,100406.00
2022-11-15T20:49:04.174Z,100389.00
2022-11-15T20:55:06.774Z,100384.00
2022-11-15T21:01:11.767Z,100381.00
2022-11-15T21:07:14.173Z,100379.00
2022-11-15T21:13:17.012Z,100375.00
2022-11-15T21:19:22.767Z,100364.00
2022-11-15T21:25:29.783Z,100362.00
2022-11-15T21:31:32.200Z,100361.00
2022-11-15T21:37:34.567Z,100348.00
2022-11-15T21:43:36.736Z,100338.00
2022-11-15T21:49:39.277Z,100332.00
2022-11-15T21:55:41.470Z,100318.00
2022-11-15T22:02:02.183Z,100314.00
2022-11-15T22:08:04.418Z,100306.00
2022-11-15T22:14:07.291Z,100294.00
2022-11-15T22:20:29.901Z,100283.00
2022-11-15T22:26:31.659Z,100277.00
2022-11-15T22:32:33.898Z,100264.00
2022-11-15T22:38:37.182Z,100263.00
2022-11-15T22:44:39.851Z,100251.00
2022-11-15T22:50:43.129Z,100244.00
2022-11-15T22:56:45.405Z,100233.00
2022-11-15T23:02:51.797Z,100222.00
2022-11-15T23:08:55.465Z,100216.00
2022-11-15T23:14:57.955Z,100201.00
2022-11-15T23:21:00.194Z,100204.00
2022-11-15T23:27:05.457Z,100191.00
2022-11-15T23:33:26.241Z,100185.00
2022-11-15T23:39:29.021Z,100172.00
2022-11-15T23:45:31.284Z,100167.00
2022-11-15T23:51:33.854Z,100157.00
2022-11-15T23:57:36.205Z,100158.00
